createdAt,value
2022-09-24T00:01:38.819Z,13.41
2022-09-24T00:04:09.742Z,13.36
2022-09-24T00:06:45.797Z,13.32
2022-09-24T00:09:14.793Z,13.17
2022-09-24T00:11:45.119Z,13.09
2022-09-24T00:14:12.017Z,13.01
2022-09-24T00:16:40.374Z,13.26
2022-09-24T00:19:07.280Z,12.89
2022-09-24T00:21:36.402Z,12.95
2022-09-24T00:24:09.279Z,12.84
2022-09-24T00:26:51.573Z,12.83
2022-09-24T00:29:24.262Z,12.87
2022-09-24T00:31:52.549Z,13.00
2022-09-24T00:34:20.397Z,13.09
2022-09-24T00:36:48.445Z,12.99
2022-09-24T00:39:16.224Z,12.83
2022-09-24T00:41:49.844Z,12.72
2022-09-24T00:44:34.801Z,12.97
2022-09-24T00:47:01.831Z,13.08
2022-09-24T00:49:28.747Z,13.14
2022-09-24T00:51:56.052Z,13.10
2022-09-24T00:54:28.475Z,13.11
2022-09-24T00:56:59.010Z,13.19
2022-09-24T00:59:28.763Z,12.93
2022-09-24T01:01:57.732Z,13.04
2022-09-24T01:04:27.496Z,12.52
2022-09-24T01:06:55.558Z,12.76
2022-09-24T01:09:26.149Z,12.46
2022-09-24T01:12:11.067Z,12.62
2022-09-24T01:15:00.299Z,12.78
2022-09-24T01:17:33.308Z,12.71
2022-09-24T01:20:09.154Z,12.60
2022-09-24T01:23:06.361Z,12.38
2022-09-24T01:25:42.047Z,12.35
2022-09-24T01:28:29.121Z,12.29
2022-09-24T01:31:03.786Z,12.33
2022-09-24T01:33:34.479Z,12.38
2022-09-24T01:36:08.457Z,12.31
2022-09-24T01:38:42.110Z,12.35
2022-09-24T01:41:12.077Z,12.02
2022-09-24T01:43:39.338Z,12.17
2022-09-24T01:46:07.228Z,12.22
2022-09-24T01:48:37.615Z,12.17
2022-09-24T01:51:14.129Z,12.03
2022-09-24T01:54:05.797Z,12.08
2022-09-24T01:56:41.553Z,11.98
2022-09-24T01:59:17.772Z,11.88
2022-09-24T02:01:57.676Z,11.90
2022-09-24T02:04:27.637Z,11.73
2022-09-24T02:07:13.511Z,11.72
2022-09-24T02:09:43.242Z,11.84
2022-09-24T02:12:22.934Z,12.02
2022-09-24T02:14:54.822Z,11.75
2022-09-24T02:17:24.076Z,11.94
2022-09-24T02:19:50.826Z,11.50
2022-09-24T02:22:18.025Z,11.74
2022-09-24T02:24:49.533Z,11.79
2022-09-24T02:27:17.628Z,11.82
2022-09-24T02:29:44.486Z,11.60
2022-09-24T02:32:15.824Z,11.61
2022-09-24T02:34:47.800Z,11.46
2022-09-24T02:37:16.095Z,11.49
2022-09-24T02:39:43.208Z,11.12
2022-09-24T02:42:14.761Z,11.59
2022-09-24T02:44:41.859Z,11.14
2022-09-24T02:47:08.706Z,11.16
2022-09-24T02:49:36.026Z,11.14
2022-09-24T02:52:03.370Z,11.05
2022-09-24T02:54:31.253Z,11.07
2022-09-24T02:56:58.447Z,11.47
2022-09-24T02:59:25.132Z,11.49
2022-09-24T03:01:52.257Z,11.07
2022-09-24T03:04:19.718Z,11.25
2022-09-24T03:06:46.517Z,11.29
2022-09-24T03:09:13.456Z,11.44
2022-09-24T03:11:40.803Z,11.10
2022-09-24T03:14:07.808Z,10.86
2022-09-24T03:16:35.279Z,11.16
2022-09-24T03:19:02.179Z,11.09
2022-09-24T03:21:29.465Z,11.10
2022-09-24T03:23:56.370Z,10.80
2022-09-24T03:26:23.086Z,11.01
2022-09-24T03:28:49.862Z,10.82
2022-09-24T03:31:16.947Z,10.72
2022-09-24T03:33:49.119Z,11.01
2022-09-24T03:36:17.185Z,11.06
2022-09-24T03:38:46.054Z,11.05
2022-09-24T03:41:13.544Z,11.06
2022-09-24T03:43:41.008Z,11.13
2022-09-24T03:46:09.043Z,11.11
2022-09-24T03:48:38.378Z,11.06
2022-09-24T03:51:13.344Z,10.93
2022-09-24T03:53:41.595Z,10.94
2022-09-24T03:56:09.523Z,10.82
2022-09-24T03:58:38.042Z,10.90
2022-09-24T04:01:09.737Z,10.85
2022-09-24T04:03:37.769Z,10.85
2022-09-24T04:06:05.818Z,10.78
2022-09-24T04:08:32.760Z,10.42
2022-09-24T04:11:00.006Z,10.66
2022-09-24T04:13:26.915Z,10.62
2022-09-24T04:15:55.077Z,10.83
2022-09-24T04:18:22.405Z,10.75
2022-09-24T04:20:49.220Z,10.67
2022-09-24T04:23:16.157Z,10.80
2022-09-24T04:25:42.963Z,10.51
2022-09-24T04:28:10.768Z,10.45
2022-09-24T04:30:38.582Z,10.68
2022-09-24T04:33:06.333Z,10.61
2022-09-24T04:35:36.234Z,10.65
2022-09-24T04:38:04.716Z,10.82
2022-09-24T04:40:32.370Z,10.88
2022-09-24T04:42:59.831Z,10.53
2022-09-24T04:45:26.904Z,10.87
2022-09-24T04:47:57.682Z,10.81
2022-09-24T04:50:29.216Z,10.98
2022-09-24T04:52:56.644Z,10.83
2022-09-24T04:55:24.101Z,10.75
2022-09-24T04:57:51.265Z,10.89
2022-09-24T05:00:20.729Z,10.84
2022-09-24T05:02:55.259Z,10.85
2022-09-24T05:05:22.305Z,10.90
2022-09-24T05:07:49.531Z,10.71
2022-09-24T05:10:16.858Z,10.99
2022-09-24T05:12:43.501Z,11.26
2022-09-24T05:15:12.236Z,11.15
2022-09-24T05:17:40.060Z,11.10
2022-09-24T05:20:08.429Z,11.08
2022-09-24T05:22:37.481Z,11.31
2022-09-24T05:25:04.647Z,11.51
2022-09-24T05:27:31.345Z,11.31
2022-09-24T05:29:58.329Z,11.19
2022-09-24T05:32:25.807Z,11.37
2022-09-24T05:34:53.487Z,11.61
2022-09-24T05:37:21.231Z,11.66
2022-09-24T05:39:48.125Z,11.58
2022-09-24T05:42:15.003Z,11.49
2022-09-24T05:44:46.376Z,12.01
2022-09-24T05:47:15.894Z,11.39
2022-09-24T05:49:43.005Z,11.71
2022-09-24T05:52:10.032Z,11.10
2022-09-24T05:54:37.065Z,11.54
2022-09-24T05:57:03.922Z,11.88
2022-09-24T05:59:31.008Z,11.21
2022-09-24T06:01:57.797Z,12.03
2022-09-24T06:04:24.714Z,11.52
2022-09-24T06:06:52.325Z,10.78
2022-09-24T06:09:21.199Z,10.50
2022-09-24T06:11:50.507Z,10.72
2022-09-24T06:14:17.726Z,12.13
2022-09-24T06:16:44.548Z,11.80
2022-09-24T06:19:11.366Z,11.62
2022-09-24T06:21:38.202Z,12.43
2022-09-24T06:24:05.016Z,12.05
2022-09-24T06:26:33.225Z,11.63
2022-09-24T06:29:04.624Z,12.32
2022-09-24T06:31:32.544Z,11.54
2022-09-24T06:34:00.452Z,11.16
2022-09-24T06:36:28.926Z,11.45
2022-09-24T06:38:55.745Z,11.48
2022-09-24T06:41:23.070Z,11.70
2022-09-24T06:43:49.870Z,11.70
2022-09-24T06:46:16.805Z,12.40
2022-09-24T06:48:45.025Z,12.10
2022-09-24T06:51:11.839Z,12.11
2022-09-24T06:53:38.713Z,12.17
2022-09-24T06:56:05.855Z,12.17
2022-09-24T06:58:33.991Z,12.39
2022-09-24T07:01:02.909Z,12.56
2022-09-24T07:03:32.088Z,13.23
2022-09-24T07:06:04.499Z,13.00
2022-09-24T07:08:32.326Z,12.75
2022-09-24T07:11:00.261Z,12.53
2022-09-24T07:13:28.056Z,13.67
2022-09-24T07:15:54.871Z,13.23
2022-09-24T07:18:22.175Z,13.34
2022-09-24T07:20:56.388Z,13.61
2022-09-24T07:23:23.514Z,14.06
2022-09-24T07:25:56.103Z,14.29
2022-09-24T07:28:23.158Z,14.47
2022-09-24T07:30:57.549Z,14.29
2022-09-24T07:33:24.585Z,13.77
2022-09-24T07:35:51.361Z,14.34
2022-09-24T07:38:18.279Z,14.43
2022-09-24T07:40:45.189Z,14.13
2022-09-24T07:43:14.179Z,14.33
2022-09-24T07:45:42.613Z,14.33
2022-09-24T07:48:10.530Z,15.28
2022-09-24T07:50:42.816Z,15.36
2022-09-24T07:53:13.144Z,15.45
2022-09-24T07:55:40.547Z,14.86
2022-09-24T07:58:11.096Z,15.00
2022-09-24T08:00:38.594Z,15.01
2022-09-24T08:03:05.697Z,15.10
2022-09-24T08:05:33.232Z,15.59
2022-09-24T08:08:00.428Z,15.07
2022-09-24T08:10:28.578Z,15.51
2022-09-24T08:12:57.152Z,15.72
2022-09-24T08:15:24.296Z,16.39
2022-09-24T08:17:51.459Z,16.51
2022-09-24T08:20:18.779Z,16.63
2022-09-24T08:22:45.598Z,16.71
2022-09-24T08:25:12.502Z,16.79
2022-09-24T08:27:39.311Z,16.22
2022-09-24T08:30:07.230Z,16.23
2022-09-24T08:32:34.205Z,16.15
2022-09-24T08:35:01.076Z,15.80
2022-09-24T08:37:29.039Z,16.39
2022-09-24T08:39:56.891Z,16.64
2022-09-24T08:43:05.541Z,16.83
2022-09-24T08:46:05.812Z,16.53
2022-09-24T08:48:37.281Z,16.44
2022-09-24T08:51:11.523Z,16.52
2022-09-24T08:54:01.513Z,16.91
2022-09-24T08:56:32.375Z,17.15
2022-09-24T08:59:23.109Z,16.97
2022-09-24T09:02:04.164Z,17.29
2022-09-24T09:04:37.867Z,17.47
2022-09-24T09:07:07.584Z,18.47
2022-09-24T09:09:54.443Z,18.00
2022-09-24T09:12:30.744Z,17.96
2022-09-24T09:15:07.066Z,18.47
2022-09-24T09:17:43.579Z,18.63
2022-09-24T09:20:22.363Z,18.40
2022-09-24T09:22:53.324Z,19.40
2022-09-24T09:25:28.549Z,19.58
2022-09-24T09:28:15.645Z,19.44
2022-09-24T09:30:49.435Z,19.86
2022-09-24T09:33:45.559Z,19.58
2022-09-24T09:36:24.507Z,19.73
2022-09-24T09:39:06.235Z,19.89
2022-09-24T09:41:50.337Z,20.27
2022-09-24T09:44:29.144Z,20.77
2022-09-24T09:47:20.288Z,20.38
2022-09-24T09:49:52.625Z,20.59
2022-09-24T09:52:22.271Z,21.53
2022-09-24T09:54:49.139Z,21.27
2022-09-24T09:57:20.456Z,21.55
2022-09-24T09:59:52.559Z,21.68
2022-09-24T10:02:25.066Z,21.54
2022-09-24T10:04:56.399Z,20.55
2022-09-24T10:07:24.854Z,20.71
2022-09-24T10:10:13.209Z,21.39
2022-09-24T10:12:41.257Z,21.69
2022-09-24T10:15:20.034Z,21.83
2022-09-24T10:17:50.991Z,20.62
2022-09-24T10:20:29.034Z,21.80
2022-09-24T10:23:02.638Z,21.89
2022-09-24T10:25:31.271Z,22.71
2022-09-24T10:28:25.780Z,22.28
2022-09-24T10:31:12.998Z,22.05
2022-09-24T10:33:45.727Z,22.38
2022-09-24T10:36:27.947Z,22.12
2022-09-24T10:39:15.714Z,22.82
2022-09-24T10:41:50.447Z,22.81
2022-09-24T10:44:18.642Z,22.53
2022-09-24T10:46:48.351Z,22.39
2022-09-24T10:49:33.917Z,22.33
2022-09-24T10:52:21.021Z,22.54
2022-09-24T10:54:50.967Z,22.89
2022-09-24T10:57:31.814Z,22.76
2022-09-24T11:00:10.116Z,22.73
2022-09-24T11:03:19.564Z,23.70
2022-09-24T11:06:05.153Z,23.67
2022-09-24T11:08:51.745Z,23.43
2022-09-24T11:11:49.090Z,23.64
2022-09-24T11:14:49.098Z,23.56
2022-09-24T11:17:25.806Z,23.80
2022-09-24T11:20:07.788Z,23.83
2022-09-24T11:22:34.613Z,23.74
2022-09-24T11:25:31.695Z,23.35
2022-09-24T11:28:37.242Z,23.05
2022-09-24T11:31:21.911Z,22.77
2022-09-24T11:34:16.235Z,23.52
2022-09-24T11:36:54.846Z,23.41
2022-09-24T11:39:30.685Z,23.46
2022-09-24T11:42:16.604Z,23.33
2022-09-24T11:44:55.479Z,23.22
2022-09-24T11:48:05.549Z,23.52
2022-09-24T11:50:47.548Z,24.00
2022-09-24T11:53:41.801Z,24.48
2022-09-24T11:56:26.509Z,24.93
2022-09-24T11:59:02.496Z,24.84
2022-09-24T12:01:33.588Z,25.33
2022-09-24T12:04:10.513Z,24.63
2022-09-24T12:07:19.559Z,25.59
2022-09-24T12:10:02.592Z,25.53
2022-09-24T12:12:35.786Z,25.33
2022-09-24T12:15:24.024Z,25.86
2022-09-24T12:17:58.052Z,25.91
2022-09-24T12:20:28.392Z,25.84
2022-09-24T12:23:12.965Z,26.33
2022-09-24T12:25:49.387Z,26.41
2022-09-24T12:28:38.589Z,26.34
2022-09-24T12:31:34.556Z,25.31
2022-09-24T12:34:37.105Z,25.54
2022-09-24T12:37:11.953Z,25.20
2022-09-24T12:39:48.128Z,25.38
2022-09-24T12:42:17.419Z,26.10
2022-09-24T12:44:50.688Z,26.26
2022-09-24T12:47:23.250Z,26.48
2022-09-24T12:49:58.073Z,26.98
2022-09-24T12:52:42.963Z,26.85
2022-09-24T12:55:26.561Z,26.77
2022-09-24T12:57:58.443Z,26.02
2022-09-24T13:00:42.118Z,26.38
2022-09-24T13:03:36.056Z,26.63
2022-09-24T13:06:04.848Z,26.91
2022-09-24T13:08:39.752Z,26.81
2022-09-24T13:11:25.893Z,26.98
2022-09-24T13:14:21.892Z,27.19
2022-09-24T13:16:52.177Z,26.57
2022-09-24T13:19:26.640Z,27.06
2022-09-24T13:21:59.677Z,26.77
2022-09-24T13:24:29.494Z,27.58
2022-09-24T13:27:10.371Z,26.37
2022-09-24T13:29:39.595Z,26.35
2022-09-24T13:32:15.783Z,25.89
2022-09-24T13:34:45.923Z,26.69
2022-09-24T13:37:23.126Z,26.92
2022-09-24T13:40:06.531Z,26.77
2022-09-24T13:42:39.757Z,26.85
2022-09-24T13:45:14.082Z,26.32
2022-09-24T13:47:43.920Z,27.40
2022-09-24T13:50:19.125Z,26.96
2022-09-24T13:53:06.546Z,26.20
2022-09-24T13:55:39.502Z,26.88
2022-09-24T13:58:25.850Z,27.74
2022-09-24T14:00:53.460Z,27.23
2022-09-24T14:03:28.427Z,27.79
2022-09-24T14:05:57.313Z,28.35
2022-09-24T14:08:25.345Z,28.03
2022-09-24T14:10:52.480Z,28.09
2022-09-24T14:13:22.005Z,28.16
2022-09-24T14:15:59.263Z,27.64
2022-09-24T14:18:28.543Z,27.34
2022-09-24T14:21:18.568Z,26.60
2022-09-24T14:23:48.826Z,26.24
2022-09-24T14:26:41.256Z,26.36
2022-09-24T14:29:14.514Z,26.15
2022-09-24T14:31:48.285Z,25.35
2022-09-24T14:34:29.286Z,24.41
2022-09-24T14:37:00.153Z,24.67
2022-09-24T14:39:29.280Z,24.87
2022-09-24T14:41:58.013Z,25.00
2022-09-24T14:44:28.728Z,25.59
2022-09-24T14:46:59.204Z,25.77
2022-09-24T14:49:46.492Z,25.33
2022-09-24T14:52:37.695Z,25.38
2022-09-24T14:55:17.564Z,25.68
2022-09-24T14:57:53.904Z,25.84
2022-09-24T15:00:27.747Z,25.58
2022-09-24T15:03:11.875Z,25.72
2022-09-24T15:05:38.960Z,26.02
2022-09-24T15:08:22.330Z,26.37
2022-09-24T15:10:57.937Z,26.14
2022-09-24T15:13:36.672Z,26.29
2022-09-24T15:16:07.161Z,26.27
2022-09-24T15:18:36.954Z,26.05
2022-09-24T15:21:08.268Z,26.10
2022-09-24T15:23:35.296Z,25.77
2022-09-24T15:26:02.230Z,25.72
2022-09-24T15:28:29.660Z,25.29
2022-09-24T15:30:57.287Z,25.51
2022-09-24T15:33:24.265Z,25.55
2022-09-24T15:35:51.194Z,25.31
2022-09-24T15:38:19.701Z,25.26
2022-09-24T15:40:47.310Z,25.15
2022-09-24T15:43:20.984Z,25.18
2022-09-24T15:45:47.888Z,24.91
2022-09-24T15:48:14.566Z,24.95
2022-09-24T15:50:43.907Z,24.98
2022-09-24T15:53:25.948Z,24.90
2022-09-24T15:55:55.751Z,24.71
2022-09-24T15:58:23.990Z,24.65
2022-09-24T16:00:52.200Z,24.61
2022-09-24T16:03:23.424Z,24.53
2022-09-24T16:08:17.478Z,24.28
2022-09-24T16:10:45.112Z,24.34
2022-09-24T16:13:13.138Z,24.43
2022-09-24T16:15:40.359Z,24.35
2022-09-24T16:18:09.397Z,24.34
2022-09-24T16:20:39.536Z,24.21
2022-09-24T16:23:14.289Z,24.27
2022-09-24T16:25:42.781Z,24.23
2022-09-24T16:28:09.679Z,24.07
2022-09-24T16:30:38.737Z,24.00
2022-09-24T16:33:05.866Z,23.86
2022-09-24T16:35:34.987Z,23.81
2022-09-24T16:38:01.923Z,23.78
2022-09-24T16:40:28.872Z,23.79
2022-09-24T16:42:55.743Z,23.69
2022-09-24T16:45:22.651Z,23.75
2022-09-24T16:47:49.357Z,23.66
2022-09-24T16:50:16.498Z,23.23
2022-09-24T16:52:44.834Z,22.68
2022-09-24T16:55:11.649Z,22.23
2022-09-24T16:57:38.443Z,22.43
2022-09-24T17:00:08.731Z,22.35
2022-09-24T17:02:36.360Z,22.59
2022-09-24T17:05:04.240Z,22.80
2022-09-24T17:07:31.995Z,22.01
2022-09-24T17:10:15.916Z,21.99
2022-09-24T17:12:45.284Z,21.42
2022-09-24T17:15:14.715Z,21.45
2022-09-24T17:17:49.094Z,21.42
2022-09-24T17:20:17.703Z,21.39
2022-09-24T17:22:44.473Z,21.61
2022-09-24T17:25:11.266Z,21.86
2022-09-24T17:27:40.190Z,21.80
2022-09-24T17:30:07.850Z,21.76
2022-09-24T17:32:34.662Z,20.37
2022-09-24T17:35:01.647Z,20.87
2022-09-24T17:37:28.442Z,20.79
2022-09-24T17:39:55.293Z,20.64
2022-09-24T17:42:22.120Z,21.06
2022-09-24T17:44:48.909Z,21.37
2022-09-24T17:47:15.619Z,21.33
2022-09-24T17:49:42.759Z,21.33
2022-09-24T17:52:09.558Z,21.54
2022-09-24T17:54:36.652Z,21.67
2022-09-24T17:57:03.466Z,21.62
2022-09-24T17:59:31.315Z,21.11
2022-09-24T18:01:58.627Z,21.25
2022-09-24T18:04:26.929Z,21.37
2022-09-24T18:06:53.946Z,21.60
2022-09-24T18:09:20.993Z,21.59
2022-09-24T18:11:51.402Z,21.38
2022-09-24T18:14:22.804Z,21.09
2022-09-24T18:16:50.411Z,20.14
2022-09-24T18:19:17.766Z,19.23
2022-09-24T18:21:46.531Z,19.19
2022-09-24T18:24:14.658Z,19.17
2022-09-24T18:26:41.620Z,18.94
2022-09-24T18:29:15.822Z,19.26
2022-09-24T18:31:43.742Z,19.43
2022-09-24T18:34:13.265Z,19.38
2022-09-24T18:36:41.692Z,18.94
2022-09-24T18:39:13.242Z,19.55
2022-09-24T18:41:41.730Z,19.29
2022-09-24T18:44:09.917Z,19.16
2022-09-24T18:46:36.985Z,19.34
2022-09-24T18:49:06.311Z,19.59
2022-09-24T18:51:36.399Z,19.23
2022-09-24T18:54:10.773Z,19.70
2022-09-24T18:56:37.938Z,19.79
2022-09-24T18:59:16.786Z,19.74
2022-09-24T19:01:45.527Z,19.89
2022-09-24T19:04:14.036Z,19.94
2022-09-24T19:06:43.660Z,19.05
2022-09-24T19:09:13.724Z,19.50
2022-09-24T19:11:42.028Z,19.46
2022-09-24T19:14:10.612Z,19.27
2022-09-24T19:16:37.446Z,19.09
2022-09-24T19:19:05.279Z,18.49
2022-09-24T19:21:32.428Z,18.75
2022-09-24T19:23:59.785Z,19.19
2022-09-24T19:26:32.268Z,19.12
2022-09-24T19:28:59.502Z,19.11
2022-09-24T19:31:30.756Z,19.12
2022-09-24T19:34:04.348Z,19.04
2022-09-24T19:36:45.577Z,19.11
2022-09-24T19:39:15.139Z,19.03
2022-09-24T19:41:42.758Z,18.77
2022-09-24T19:44:11.597Z,18.97
2022-09-24T19:46:39.884Z,18.90
2022-09-24T19:49:07.498Z,18.88
2022-09-24T19:51:35.492Z,18.77
2022-09-24T19:54:04.720Z,18.68
2022-09-24T19:56:32.351Z,18.67
2022-09-24T19:59:00.941Z,18.70
2022-09-24T20:01:30.011Z,18.54
2022-09-24T20:03:59.510Z,18.10
2022-09-24T20:06:29.026Z,18.17
2022-09-24T20:08:57.374Z,18.32
2022-09-24T20:11:25.751Z,18.50
2022-09-24T20:13:55.497Z,18.30
2022-09-24T20:16:26.226Z,18.20
2022-09-24T20:18:57.505Z,18.23
2022-09-24T20:21:29.180Z,18.27
2022-09-24T20:23:57.920Z,18.16
2022-09-24T20:26:44.173Z,18.04
2022-09-24T20:29:12.296Z,18.16
2022-09-24T20:31:53.095Z,18.16
2022-09-24T20:34:27.817Z,18.38
2022-09-24T20:36:54.900Z,17.84
2022-09-24T20:39:21.786Z,18.05
2022-09-24T20:41:49.465Z,18.20
2022-09-24T20:44:16.540Z,18.30
2022-09-24T20:46:43.576Z,18.29
2022-09-24T20:49:18.291Z,18.29
2022-09-24T20:51:46.009Z,18.13
2022-09-24T20:54:12.829Z,18.16
2022-09-24T20:56:39.609Z,17.92
2022-09-24T20:59:07.597Z,17.90
2022-09-24T21:01:34.633Z,17.99
2022-09-24T21:04:38.707Z,18.11
2022-09-24T21:07:05.639Z,18.02
2022-09-24T21:09:32.645Z,17.89
2022-09-24T21:12:02.876Z,17.99
2022-09-24T21:14:29.826Z,17.86
2022-09-24T21:16:56.593Z,17.58
2022-09-24T21:19:23.470Z,17.22
2022-09-24T21:21:52.214Z,17.36
2022-09-24T21:24:19.660Z,17.46
2022-09-24T21:26:46.684Z,17.48
2022-09-24T21:29:16.879Z,17.45
2022-09-24T21:31:46.247Z,17.57
2022-09-24T21:34:18.141Z,17.68
2022-09-24T21:36:45.719Z,17.01
2022-09-24T21:39:14.467Z,17.32
2022-09-24T21:41:41.472Z,17.14
2022-09-24T21:44:11.843Z,17.23
2022-09-24T21:46:40.450Z,17.43
2022-09-24T21:49:07.441Z,17.34
2022-09-24T21:51:34.409Z,17.11
2022-09-24T21:54:03.533Z,17.41
2022-09-24T21:56:32.289Z,17.37
2022-09-24T21:58:59.621Z,16.77
2022-09-24T22:01:28.254Z,16.89
2022-09-24T22:03:59.536Z,17.05
2022-09-24T22:06:28.877Z,17.01
2022-09-24T22:09:07.094Z,16.84
2022-09-24T22:11:34.535Z,16.78
2022-09-24T22:14:02.540Z,16.54
2022-09-24T22:16:31.192Z,16.83
2022-09-24T22:18:58.736Z,16.60
2022-09-24T22:21:25.549Z,16.67
2022-09-24T22:23:52.336Z,16.83
2022-09-24T22:26:19.437Z,16.92
2022-09-24T22:28:46.126Z,16.85
2022-09-24T22:31:16.440Z,17.02
2022-09-24T22:34:02.617Z,16.87
2022-09-24T22:36:31.731Z,16.85
2022-09-24T22:38:59.975Z,16.76
2022-09-24T22:41:29.012Z,16.84
2022-09-24T22:43:57.083Z,16.70
2022-09-24T22:46:27.074Z,16.61
2022-09-24T22:48:56.986Z,16.32
2022-09-24T22:51:27.053Z,16.64
2022-09-24T22:53:54.882Z,16.22
2022-09-24T22:56:24.029Z,16.08
2022-09-24T22:59:01.137Z,16.21
2022-09-24T23:01:34.025Z,16.49
2022-09-24T23:04:01.647Z,16.38
2022-09-24T23:06:28.920Z,16.05
2022-09-24T23:08:56.676Z,16.19
2022-09-24T23:11:34.527Z,16.21
2022-09-24T23:14:06.592Z,16.31
2022-09-24T23:16:36.186Z,16.26
2022-09-24T23:19:11.605Z,16.43
2022-09-24T23:21:38.485Z,16.14
2022-09-24T23:24:13.940Z,16.14
2022-09-24T23:26:40.894Z,16.06
2022-09-24T23:29:08.634Z,15.74
2022-09-24T23:31:37.083Z,15.95
2022-09-24T23:34:05.830Z,16.07
2022-09-24T23:36:33.780Z,15.93
2022-09-24T23:39:01.589Z,15.80
2022-09-24T23:41:31.850Z,15.84
2022-09-24T23:43:59.751Z,15.68
2022-09-24T23:46:27.451Z,15.87
2022-09-24T23:48:54.872Z,15.81
2022-09-24T23:51:21.590Z,15.71
2022-09-24T23:53:48.706Z,14.46
2022-09-24T23:56:15.503Z,14.79
2022-09-24T23:58:42.543Z,15.36
